sensor_id;sensor_type;location;lat;lon;timestamp;P1;durP1;ratioP1;P2;durP2;ratioP2
77449;SDS011;66536;53.150;18.172;2024-02-21T00:01:51;20.80;;;7.20;;
77449;SDS011;66536;53.150;18.172;2024-02-21T00:04:17;25.60;;;7.20;;
77449;SDS011;66536;53.150;18.172;2024-02-21T00:06:44;17.70;;;7.30;;
77449;SDS011;66536;53.150;18.172;2024-02-21T00:09:11;21.10;;;7.20;;
77449;SDS011;66536;53.150;18.172;2024-02-21T00:11:37;23.80;;;7.30;;
77449;SDS011;66536;53.150;18.172;2024-02-21T00:14:03;19.70;;;7.20;;
77449;SDS011;66536;53.150;18.172;2024-02-21T00:16:29;22.60;;;7.80;;
77449;SDS011;66536;53.150;18.172;2024-02-21T00:18:56;20.30;;;7.30;;
77449;SDS011;66536;53.150;18.172;2024-02-21T00:21:22;21.80;;;6.30;;
77449;SDS011;66536;53.150;18.172;2024-02-21T00:23:48;22.30;;;7.90;;
77449;SDS011;66536;53.150;18.172;2024-02-21T00:26:16;28.50;;;7.60;;
77449;SDS011;66536;53.150;18.172;2024-02-21T00:28:42;20.60;;;6.70;;
77449;SDS011;66536;53.150;18.172;2024-02-21T00:31:08;20.10;;;6.20;;
77449;SDS011;66536;53.150;18.172;2024-02-21T00:33:36;19.10;;;6.90;;
77449;SDS011;66536;53.150;18.172;2024-02-21T00:36:05;21.20;;;6.60;;
77449;SDS011;66536;53.150;18.172;2024-02-21T00:38:31;19.10;;;7.20;;
77449;SDS011;66536;53.150;18.172;2024-02-21T00:41:00;24.00;;;7.70;;
77449;SDS011;66536;53.150;18.172;2024-02-21T00:43:26;20.60;;;7.60;;
77449;SDS011;66536;53.150;18.172;2024-02-21T00:45:52;26.50;;;9.70;;
77449;SDS011;66536;53.150;18.172;2024-02-21T00:48:18;25.30;;;9.30;;
77449;SDS011;66536;53.150;18.172;2024-02-21T00:50:44;21.90;;;9.60;;
77449;SDS011;66536;53.150;18.172;2024-02-21T00:53:10;24.20;;;9.50;;
77449;SDS011;66536;53.150;18.172;2024-02-21T00:55:36;33.70;;;10.20;;
77449;SDS011;66536;53.150;18.172;2024-02-21T00:58:02;27.20;;;10.30;;
77449;SDS011;66536;53.150;18.172;2024-02-21T01:00:28;33.50;;;10.40;;
77449;SDS011;66536;53.150;18.172;2024-02-21T01:02:54;24.90;;;9.80;;
77449;SDS011;66536;53.150;18.172;2024-02-21T01:05:20;29.90;;;9.50;;
77449;SDS011;66536;53.150;18.172;2024-02-21T01:07:48;20.80;;;8.40;;
77449;SDS011;66536;53.150;18.172;2024-02-21T01:10:14;26.10;;;7.90;;
77449;SDS011;66536;53.150;18.172;2024-02-21T01:12:40;21.30;;;6.30;;
77449;SDS011;66536;53.150;18.172;2024-02-21T01:15:06;16.80;;;6.90;;
77449;SDS011;66536;53.150;18.172;2024-02-21T01:17:32;22.20;;;7.20;;
77449;SDS011;66536;53.150;18.172;2024-02-21T01:19:59;22.10;;;7.50;;
77449;SDS011;66536;53.150;18.172;2024-02-21T01:22:25;22.50;;;7.30;;
77449;SDS011;66536;53.150;18.172;2024-02-21T01:24:51;27.90;;;8.10;;
77449;SDS011;66536;53.150;18.172;2024-02-21T01:27:17;22.30;;;7.80;;
77449;SDS011;66536;53.150;18.172;2024-02-21T01:29:43;25.20;;;8.10;;
77449;SDS011;66536;53.150;18.172;2024-02-21T01:32:09;23.30;;;8.80;;
77449;SDS011;66536;53.150;18.172;2024-02-21T01:34:36;26.30;;;9.60;;
77449;SDS011;66536;53.150;18.172;2024-02-21T01:37:02;23.90;;;10.60;;
77449;SDS011;66536;53.150;18.172;2024-02-21T01:39:30;29.40;;;11.80;;
77449;SDS011;66536;53.150;18.172;2024-02-21T01:41:56;30.30;;;12.30;;
77449;SDS011;66536;53.150;18.172;2024-02-21T01:44:22;33.20;;;13.00;;
77449;SDS011;66536;53.150;18.172;2024-02-21T01:46:48;34.60;;;12.10;;
77449;SDS011;66536;53.150;18.172;2024-02-21T01:49:15;28.30;;;11.10;;
77449;SDS011;66536;53.150;18.172;2024-02-21T01:51:41;34.40;;;13.10;;
77449;SDS011;66536;53.150;18.172;2024-02-21T01:54:07;36.20;;;13.30;;
77449;SDS011;66536;53.150;18.172;2024-02-21T01:56:34;41.90;;;14.80;;
77449;SDS011;66536;53.150;18.172;2024-02-21T01:59:00;39.30;;;12.20;;
77449;SDS011;66536;53.150;18.172;2024-02-21T02:01:27;38.50;;;12.40;;
77449;SDS011;66536;53.150;18.172;2024-02-21T02:03:55;39.80;;;12.80;;
77449;SDS011;66536;53.150;18.172;2024-02-21T02:06:21;32.70;;;10.90;;
77449;SDS011;66536;53.150;18.172;2024-02-21T02:08:47;26.60;;;9.10;;
77449;SDS011;66536;53.150;18.172;2024-02-21T02:11:14;36.40;;;10.70;;
77449;SDS011;66536;53.150;18.172;2024-02-21T02:13:40;24.80;;;9.70;;
77449;SDS011;66536;53.150;18.172;2024-02-21T02:16:06;35.30;;;10.90;;
77449;SDS011;66536;53.150;18.172;2024-02-21T02:18:32;30.40;;;8.60;;
77449;SDS011;66536;53.150;18.172;2024-02-21T02:20:58;31.40;;;8.70;;
77449;SDS011;66536;53.150;18.172;2024-02-21T02:23:25;27.10;;;9.10;;
77449;SDS011;66536;53.150;18.172;2024-02-21T02:25:52;39.50;;;9.40;;
77449;SDS011;66536;53.150;18.172;2024-02-21T02:28:19;32.20;;;10.40;;
77449;SDS011;66536;53.150;18.172;2024-02-21T02:30:47;30.30;;;10.00;;
77449;SDS011;66536;53.150;18.172;2024-02-21T02:33:13;32.10;;;9.10;;
77449;SDS011;66536;53.150;18.172;2024-02-21T02:35:40;27.10;;;8.30;;
77449;SDS011;66536;53.150;18.172;2024-02-21T02:38:07;37.00;;;9.30;;
77449;SDS011;66536;53.150;18.172;2024-02-21T02:40:33;31.50;;;7.90;;
77449;SDS011;66536;53.150;18.172;2024-02-21T02:43:00;25.40;;;8.20;;
77449;SDS011;66536;53.150;18.172;2024-02-21T02:45:26;37.60;;;8.90;;
77449;SDS011;66536;53.150;18.172;2024-02-21T02:47:53;29.80;;;8.50;;
77449;SDS011;66536;53.150;18.172;2024-02-21T02:50:20;30.90;;;9.90;;
77449;SDS011;66536;53.150;18.172;2024-02-21T02:52:47;32.70;;;9.10;;
77449;SDS011;66536;53.150;18.172;2024-02-21T02:55:13;36.30;;;9.40;;
77449;SDS011;66536;53.150;18.172;2024-02-21T02:57:39;31.20;;;8.80;;
77449;SDS011;66536;53.150;18.172;2024-02-21T03:00:08;28.30;;;9.30;;
77449;SDS011;66536;53.150;18.172;2024-02-21T03:02:37;32.40;;;8.90;;
77449;SDS011;66536;53.150;18.172;2024-02-21T03:05:11;34.20;;;8.30;;
77449;SDS011;66536;53.150;18.172;2024-02-21T03:07:40;35.40;;;10.20;;
77449;SDS011;66536;53.150;18.172;2024-02-21T03:10:07;43.30;;;10.60;;
77449;SDS011;66536;53.150;18.172;2024-02-21T03:12:33;38.00;;;11.50;;
77449;SDS011;66536;53.150;18.172;2024-02-21T03:15:00;33.90;;;10.00;;
77449;SDS011;66536;53.150;18.172;2024-02-21T03:17:26;41.10;;;12.20;;
77449;SDS011;66536;53.150;18.172;2024-02-21T03:19:53;39.90;;;11.70;;
77449;SDS011;66536;53.150;18.172;2024-02-21T03:22:21;42.30;;;10.60;;
77449;SDS011;66536;53.150;18.172;2024-02-21T03:24:48;42.60;;;12.60;;
77449;SDS011;66536;53.150;18.172;2024-02-21T03:27:15;29.30;;;9.90;;
77449;SDS011;66536;53.150;18.172;2024-02-21T03:29:41;44.80;;;10.50;;
77449;SDS011;66536;53.150;18.172;2024-02-21T03:32:07;39.80;;;10.00;;
77449;SDS011;66536;53.150;18.172;2024-02-21T03:34:33;30.30;;;9.40;;
77449;SDS011;66536;53.150;18.172;2024-02-21T03:36:59;38.60;;;9.60;;
77449;SDS011;66536;53.150;18.172;2024-02-21T03:39:25;24.70;;;8.40;;
77449;SDS011;66536;53.150;18.172;2024-02-21T03:41:52;34.10;;;9.80;;
77449;SDS011;66536;53.150;18.172;2024-02-21T03:44:18;37.80;;;9.20;;
77449;SDS011;66536;53.150;18.172;2024-02-21T03:46:44;29.70;;;8.60;;
77449;SDS011;66536;53.150;18.172;2024-02-21T03:49:10;29.90;;;8.20;;
77449;SDS011;66536;53.150;18.172;2024-02-21T03:51:36;32.00;;;8.10;;
77449;SDS011;66536;53.150;18.172;2024-02-21T03:54:02;20.90;;;8.50;;
77449;SDS011;66536;53.150;18.172;2024-02-21T03:56:28;32.00;;;8.80;;
77449;SDS011;66536;53.150;18.172;2024-02-21T03:58:54;32.20;;;8.00;;
77449;SDS011;66536;53.150;18.172;2024-02-21T04:01:21;32.10;;;8.20;;
77449;SDS011;66536;53.150;18.172;2024-02-21T04:03:47;23.40;;;8.00;;
77449;SDS011;66536;53.150;18.172;2024-02-21T04:06:13;29.40;;;8.50;;
77449;SDS011;66536;53.150;18.172;2024-02-21T04:08:39;28.70;;;7.80;;
77449;SDS011;66536;53.150;18.172;2024-02-21T04:11:05;23.70;;;8.50;;
77449;SDS011;66536;53.150;18.172;2024-02-21T04:13:31;27.50;;;8.40;;
77449;SDS011;66536;53.150;18.172;2024-02-21T04:15:57;35.80;;;8.30;;
77449;SDS011;66536;53.150;18.172;2024-02-21T04:18:23;29.10;;;8.80;;
77449;SDS011;66536;53.150;18.172;2024-02-21T04:20:50;37.90;;;9.20;;
77449;SDS011;66536;53.150;18.172;2024-02-21T04:23:17;32.80;;;8.70;;
77449;SDS011;66536;53.150;18.172;2024-02-21T04:25:43;27.30;;;10.70;;
77449;SDS011;66536;53.150;18.172;2024-02-21T04:28:09;39.30;;;10.90;;
77449;SDS011;66536;53.150;18.172;2024-02-21T04:30:35;37.00;;;10.80;;
77449;SDS011;66536;53.150;18.172;2024-02-21T04:33:01;28.40;;;9.70;;
77449;SDS011;66536;53.150;18.172;2024-02-21T04:35:27;31.80;;;10.70;;
77449;SDS011;66536;53.150;18.172;2024-02-21T04:37:53;25.80;;;9.30;;
77449;SDS011;66536;53.150;18.172;2024-02-21T04:40:19;24.00;;;9.70;;
77449;SDS011;66536;53.150;18.172;2024-02-21T04:42:46;29.60;;;9.90;;
77449;SDS011;66536;53.150;18.172;2024-02-21T04:45:12;28.50;;;10.40;;
77449;SDS011;66536;53.150;18.172;2024-02-21T04:47:38;31.80;;;9.80;;
77449;SDS011;66536;53.150;18.172;2024-02-21T04:50:04;27.20;;;8.70;;
77449;SDS011;66536;53.150;18.172;2024-02-21T04:52:31;20.50;;;7.90;;
77449;SDS011;66536;53.150;18.172;2024-02-21T04:54:57;26.70;;;8.20;;
77449;SDS011;66536;53.150;18.172;2024-02-21T04:57:23;26.90;;;8.60;;
77449;SDS011;66536;53.150;18.172;2024-02-21T04:59:50;22.20;;;8.20;;
77449;SDS011;66536;53.150;18.172;2024-02-21T05:02:16;20.90;;;7.70;;
77449;SDS011;66536;53.150;18.172;2024-02-21T05:04:43;26.90;;;9.20;;
77449;SDS011;66536;53.150;18.172;2024-02-21T05:07:09;27.00;;;8.40;;
77449;SDS011;66536;53.150;18.172;2024-02-21T05:09:37;27.30;;;8.00;;
77449;SDS011;66536;53.150;18.172;2024-02-21T05:12:03;22.70;;;8.00;;
77449;SDS011;66536;53.150;18.172;2024-02-21T05:14:29;21.00;;;7.90;;
77449;SDS011;66536;53.150;18.172;2024-02-21T05:16:56;19.50;;;8.10;;
77449;SDS011;66536;53.150;18.172;2024-02-21T05:19:23;17.80;;;7.50;;
77449;SDS011;66536;53.150;18.172;2024-02-21T05:21:49;20.50;;;7.80;;
77449;SDS011;66536;53.150;18.172;2024-02-21T05:24:15;20.00;;;7.90;;
77449;SDS011;66536;53.150;18.172;2024-02-21T05:26:41;19.30;;;7.80;;
77449;SDS011;66536;53.150;18.172;2024-02-21T05:29:07;24.20;;;9.10;;
77449;SDS011;66536;53.150;18.172;2024-02-21T05:34:23;27.30;;;8.70;;
77449;SDS011;66536;53.150;18.172;2024-02-21T05:36:49;23.40;;;8.40;;
77449;SDS011;66536;53.150;18.172;2024-02-21T05:39:15;17.40;;;8.10;;
77449;SDS011;66536;53.150;18.172;2024-02-21T05:41:42;22.00;;;8.00;;
77449;SDS011;66536;53.150;18.172;2024-02-21T05:44:09;22.30;;;7.90;;
77449;SDS011;66536;53.150;18.172;2024-02-21T05:46:36;43.80;;;20.50;;
77449;SDS011;66536;53.150;18.172;2024-02-21T05:49:02;35.30;;;14.10;;
77449;SDS011;66536;53.150;18.172;2024-02-21T05:51:32;34.70;;;11.90;;
77449;SDS011;66536;53.150;18.172;2024-02-21T05:53:59;30.90;;;11.40;;
77449;SDS011;66536;53.150;18.172;2024-02-21T05:56:25;37.30;;;13.20;;
77449;SDS011;66536;53.150;18.172;2024-02-21T05:58:52;30.30;;;10.30;;
77449;SDS011;66536;53.150;18.172;2024-02-21T06:01:18;26.30;;;9.40;;
77449;SDS011;66536;53.150;18.172;2024-02-21T06:03:44;29.50;;;10.00;;
77449;SDS011;66536;53.150;18.172;2024-02-21T06:06:10;25.50;;;9.60;;
77449;SDS011;66536;53.150;18.172;2024-02-21T06:08:37;21.40;;;9.30;;
77449;SDS011;66536;53.150;18.172;2024-02-21T06:11:05;21.20;;;10.00;;
77449;SDS011;66536;53.150;18.172;2024-02-21T06:13:31;20.00;;;9.30;;
77449;SDS011;66536;53.150;18.172;2024-02-21T06:15:57;32.80;;;10.90;;
77449;SDS011;66536;53.150;18.172;2024-02-21T06:18:23;30.30;;;11.80;;
77449;SDS011;66536;53.150;18.172;2024-02-21T06:20:50;34.70;;;12.80;;
77449;SDS011;66536;53.150;18.172;2024-02-21T06:23:16;32.10;;;11.90;;
77449;SDS011;66536;53.150;18.172;2024-02-21T06:25:42;30.10;;;12.10;;
77449;SDS011;66536;53.150;18.172;2024-02-21T06:28:08;35.30;;;11.70;;
77449;SDS011;66536;53.150;18.172;2024-02-21T06:30:35;33.00;;;13.20;;
77449;SDS011;66536;53.150;18.172;2024-02-21T06:33:01;41.60;;;13.60;;
77449;SDS011;66536;53.150;18.172;2024-02-21T06:35:28;38.80;;;15.00;;
77449;SDS011;66536;53.150;18.172;2024-02-21T06:37:55;30.10;;;13.20;;
77449;SDS011;66536;53.150;18.172;2024-02-21T06:40:21;38.70;;;13.10;;
77449;SDS011;66536;53.150;18.172;2024-02-21T06:42:48;30.30;;;11.30;;
77449;SDS011;66536;53.150;18.172;2024-02-21T06:45:16;27.00;;;11.40;;
77449;SDS011;66536;53.150;18.172;2024-02-21T06:47:43;40.40;;;15.40;;
77449;SDS011;66536;53.150;18.172;2024-02-21T06:50:09;35.00;;;13.90;;
77449;SDS011;66536;53.150;18.172;2024-02-21T06:52:36;31.90;;;12.60;;
77449;SDS011;66536;53.150;18.172;2024-02-21T06:55:02;36.50;;;12.40;;
77449;SDS011;66536;53.150;18.172;2024-02-21T06:57:29;33.40;;;12.20;;
77449;SDS011;66536;53.150;18.172;2024-02-21T06:59:55;37.40;;;13.10;;
77449;SDS011;66536;53.150;18.172;2024-02-21T07:02:21;35.70;;;13.50;;
77449;SDS011;66536;53.150;18.172;2024-02-21T07:04:47;31.30;;;11.90;;
77449;SDS011;66536;53.150;18.172;2024-02-21T07:07:14;32.20;;;12.60;;
77449;SDS011;66536;53.150;18.172;2024-02-21T07:09:40;37.60;;;12.60;;
77449;SDS011;66536;53.150;18.172;2024-02-21T07:12:06;37.00;;;12.70;;
77449;SDS011;66536;53.150;18.172;2024-02-21T07:14:32;32.20;;;11.90;;
77449;SDS011;66536;53.150;18.172;2024-02-21T07:16:59;37.10;;;12.50;;
77449;SDS011;66536;53.150;18.172;2024-02-21T07:19:25;33.50;;;12.50;;
77449;SDS011;66536;53.150;18.172;2024-02-21T07:21:52;32.90;;;12.70;;
77449;SDS011;66536;53.150;18.172;2024-02-21T07:24:18;41.50;;;14.60;;
77449;SDS011;66536;53.150;18.172;2024-02-21T07:26:45;35.00;;;13.60;;
77449;SDS011;66536;53.150;18.172;2024-02-21T07:29:11;37.90;;;14.60;;
77449;SDS011;66536;53.150;18.172;2024-02-21T07:31:40;41.40;;;14.30;;
77449;SDS011;66536;53.150;18.172;2024-02-21T07:34:08;41.00;;;14.50;;
77449;SDS011;66536;53.150;18.172;2024-02-21T07:36:34;36.30;;;14.60;;
77449;SDS011;66536;53.150;18.172;2024-02-21T07:39:03;37.60;;;14.20;;
77449;SDS011;66536;53.150;18.172;2024-02-21T07:41:30;39.00;;;14.70;;
77449;SDS011;66536;53.150;18.172;2024-02-21T07:43:56;41.60;;;14.40;;
77449;SDS011;66536;53.150;18.172;2024-02-21T07:46:23;40.50;;;14.10;;
77449;SDS011;66536;53.150;18.172;2024-02-21T07:48:50;45.40;;;14.90;;
77449;SDS011;66536;53.150;18.172;2024-02-21T07:51:16;45.20;;;15.00;;
77449;SDS011;66536;53.150;18.172;2024-02-21T07:53:43;41.50;;;15.20;;
77449;SDS011;66536;53.150;18.172;2024-02-21T07:56:12;45.30;;;15.20;;
77449;SDS011;66536;53.150;18.172;2024-02-21T07:58:38;38.30;;;13.80;;
77449;SDS011;66536;53.150;18.172;2024-02-21T08:01:04;44.90;;;14.50;;
77449;SDS011;66536;53.150;18.172;2024-02-21T08:03:30;44.40;;;15.20;;
77449;SDS011;66536;53.150;18.172;2024-02-21T08:05:56;43.00;;;14.60;;
77449;SDS011;66536;53.150;18.172;2024-02-21T08:08:22;41.10;;;14.80;;
77449;SDS011;66536;53.150;18.172;2024-02-21T08:10:49;34.80;;;14.90;;
77449;SDS011;66536;53.150;18.172;2024-02-21T08:13:15;38.70;;;13.80;;
77449;SDS011;66536;53.150;18.172;2024-02-21T08:15:41;32.30;;;13.00;;
77449;SDS011;66536;53.150;18.172;2024-02-21T08:18:07;34.00;;;12.30;;
77449;SDS011;66536;53.150;18.172;2024-02-21T08:20:34;36.30;;;11.90;;
77449;SDS011;66536;53.150;18.172;2024-02-21T08:23:01;31.30;;;12.40;;
77449;SDS011;66536;53.150;18.172;2024-02-21T08:25:28;35.70;;;13.30;;
77449;SDS011;66536;53.150;18.172;2024-02-21T08:27:56;32.30;;;12.60;;
77449;SDS011;66536;53.150;18.172;2024-02-21T08:30:24;31.90;;;11.60;;
77449;SDS011;66536;53.150;18.172;2024-02-21T08:32:50;34.50;;;12.40;;
77449;SDS011;66536;53.150;18.172;2024-02-21T08:35:16;43.10;;;13.90;;
77449;SDS011;66536;53.150;18.172;2024-02-21T08:37:44;27.20;;;11.50;;
77449;SDS011;66536;53.150;18.172;2024-02-21T08:40:13;34.20;;;12.50;;
77449;SDS011;66536;53.150;18.172;2024-02-21T08:42:43;31.90;;;11.20;;
77449;SDS011;66536;53.150;18.172;2024-02-21T08:45:09;27.70;;;10.90;;
77449;SDS011;66536;53.150;18.172;2024-02-21T08:47:36;23.30;;;9.90;;
77449;SDS011;66536;53.150;18.172;2024-02-21T08:50:05;29.20;;;11.60;;
77449;SDS011;66536;53.150;18.172;2024-02-21T08:52:32;23.60;;;11.00;;
77449;SDS011;66536;53.150;18.172;2024-02-21T08:54:59;24.90;;;10.10;;
77449;SDS011;66536;53.150;18.172;2024-02-21T08:57:26;25.60;;;10.70;;
77449;SDS011;66536;53.150;18.172;2024-02-21T08:59:53;22.20;;;9.10;;
77449;SDS011;66536;53.150;18.172;2024-02-21T09:02:19;24.20;;;9.70;;
77449;SDS011;66536;53.150;18.172;2024-02-21T09:04:46;27.60;;;11.20;;
77449;SDS011;66536;53.150;18.172;2024-02-21T09:07:12;24.90;;;10.20;;
77449;SDS011;66536;53.150;18.172;2024-02-21T09:09:38;32.00;;;9.70;;
77449;SDS011;66536;53.150;18.172;2024-02-21T09:12:06;26.80;;;9.40;;
77449;SDS011;66536;53.150;18.172;2024-02-21T09:14:33;28.90;;;11.00;;
77449;SDS011;66536;53.150;18.172;2024-02-21T09:17:00;29.10;;;11.00;;
77449;SDS011;66536;53.150;18.172;2024-02-21T09:19:26;34.40;;;12.50;;
77449;SDS011;66536;53.150;18.172;2024-02-21T09:21:54;28.90;;;12.00;;
77449;SDS011;66536;53.150;18.172;2024-02-21T09:24:22;33.20;;;15.30;;
77449;SDS011;66536;53.150;18.172;2024-02-21T09:26:48;32.50;;;12.90;;
77449;SDS011;66536;53.150;18.172;2024-02-21T09:29:15;23.30;;;11.50;;
77449;SDS011;66536;53.150;18.172;2024-02-21T09:31:45;30.60;;;12.20;;
77449;SDS011;66536;53.150;18.172;2024-02-21T09:34:11;34.80;;;12.30;;
77449;SDS011;66536;53.150;18.172;2024-02-21T09:36:38;35.50;;;13.70;;
77449;SDS011;66536;53.150;18.172;2024-02-21T09:39:06;33.20;;;13.60;;
77449;SDS011;66536;53.150;18.172;2024-02-21T09:41:32;27.00;;;10.60;;
77449;SDS011;66536;53.150;18.172;2024-02-21T09:44:02;24.10;;;10.60;;
77449;SDS011;66536;53.150;18.172;2024-02-21T09:46:37;24.80;;;10.40;;
77449;SDS011;66536;53.150;18.172;2024-02-21T09:52:48;21.60;;;10.00;;
77449;SDS011;66536;53.150;18.172;2024-02-21T09:55:17;23.70;;;10.80;;
77449;SDS011;66536;53.150;18.172;2024-02-21T09:57:44;26.00;;;10.10;;
77449;SDS011;66536;53.150;18.172;2024-02-21T10:00:11;22.60;;;10.30;;
77449;SDS011;66536;53.150;18.172;2024-02-21T10:02:39;30.70;;;10.30;;
77449;SDS011;66536;53.150;18.172;2024-02-21T10:05:05;20.70;;;9.40;;
77449;SDS011;66536;53.150;18.172;2024-02-21T10:07:34;21.00;;;8.50;;
77449;SDS011;66536;53.150;18.172;2024-02-21T10:10:04;19.60;;;9.70;;
77449;SDS011;66536;53.150;18.172;2024-02-21T10:12:31;24.10;;;9.50;;
77449;SDS011;66536;53.150;18.172;2024-02-21T10:15:05;21.40;;;9.90;;
77449;SDS011;66536;53.150;18.172;2024-02-21T10:17:32;20.90;;;9.80;;
77449;SDS011;66536;53.150;18.172;2024-02-21T10:20:06;29.60;;;12.80;;
77449;SDS011;66536;53.150;18.172;2024-02-21T10:22:34;20.30;;;10.20;;
77449;SDS011;66536;53.150;18.172;2024-02-21T10:25:07;25.00;;;10.60;;
77449;SDS011;66536;53.150;18.172;2024-02-21T10:27:35;21.50;;;10.60;;
77449;SDS011;66536;53.150;18.172;2024-02-21T10:30:03;26.40;;;11.10;;
77449;SDS011;66536;53.150;18.172;2024-02-21T10:32:32;26.50;;;11.60;;
77449;SDS011;66536;53.150;18.172;2024-02-21T10:35:01;19.80;;;10.50;;
77449;SDS011;66536;53.150;18.172;2024-02-21T10:37:30;23.80;;;10.60;;
77449;SDS011;66536;53.150;18.172;2024-02-21T10:39:57;19.00;;;10.20;;
77449;SDS011;66536;53.150;18.172;2024-02-21T10:42:25;21.00;;;10.70;;
77449;SDS011;66536;53.150;18.172;2024-02-21T10:44:59;20.20;;;10.20;;
77449;SDS011;66536;53.150;18.172;2024-02-21T10:47:30;25.30;;;10.20;;
77449;SDS011;66536;53.150;18.172;2024-02-21T10:50:04;21.20;;;10.00;;
77449;SDS011;66536;53.150;18.172;2024-02-21T10:52:43;19.90;;;9.50;;
77449;SDS011;66536;53.150;18.172;2024-02-21T10:55:20;19.50;;;10.10;;
77449;SDS011;66536;53.150;18.172;2024-02-21T10:57:52;23.80;;;11.00;;
77449;SDS011;66536;53.150;18.172;2024-02-21T11:00:19;24.00;;;10.20;;
77449;SDS011;66536;53.150;18.172;2024-02-21T11:02:47;20.60;;;10.40;;
77449;SDS011;66536;53.150;18.172;2024-02-21T11:05:14;17.70;;;10.60;;
77449;SDS011;66536;53.150;18.172;2024-02-21T11:07:42;19.30;;;10.90;;
77449;SDS011;66536;53.150;18.172;2024-02-21T11:10:20;23.20;;;10.50;;
77449;SDS011;66536;53.150;18.172;2024-02-21T11:12:53;22.90;;;10.90;;
77449;SDS011;66536;53.150;18.172;2024-02-21T11:15:35;26.00;;;10.10;;
77449;SDS011;66536;53.150;18.172;2024-02-21T11:18:02;25.30;;;13.10;;
77449;SDS011;66536;53.150;18.172;2024-02-21T11:20:32;22.80;;;10.10;;
77449;SDS011;66536;53.150;18.172;2024-02-21T11:23:04;28.60;;;10.90;;
77449;SDS011;66536;53.150;18.172;2024-02-21T11:25:34;22.80;;;11.90;;
77449;SDS011;66536;53.150;18.172;2024-02-21T11:28:06;24.90;;;10.30;;
77449;SDS011;66536;53.150;18.172;2024-02-21T11:30:41;28.70;;;11.90;;
77449;SDS011;66536;53.150;18.172;2024-02-21T11:33:41;25.80;;;10.80;;
77449;SDS011;66536;53.150;18.172;2024-02-21T11:36:22;30.00;;;13.50;;
77449;SDS011;66536;53.150;18.172;2024-02-21T11:38:51;25.00;;;11.30;;
77449;SDS011;66536;53.150;18.172;2024-02-21T11:41:19;21.40;;;10.50;;
77449;SDS011;66536;53.150;18.172;2024-02-21T11:43:48;20.70;;;10.90;;
77449;SDS011;66536;53.150;18.172;2024-02-21T11:46:16;21.40;;;10.00;;
77449;SDS011;66536;53.150;18.172;2024-02-21T11:48:42;19.40;;;10.80;;
77449;SDS011;66536;53.150;18.172;2024-02-21T11:53:53;22.90;;;10.80;;
77449;SDS011;66536;53.150;18.172;2024-02-21T11:56:19;21.10;;;10.10;;
77449;SDS011;66536;53.150;18.172;2024-02-21T11:58:46;21.60;;;11.00;;
77449;SDS011;66536;53.150;18.172;2024-02-21T12:01:14;18.90;;;10.10;;
77449;SDS011;66536;53.150;18.172;2024-02-21T12:03:42;19.30;;;9.90;;
77449;SDS011;66536;53.150;18.172;2024-02-21T12:06:15;18.90;;;10.60;;
77449;SDS011;66536;53.150;18.172;2024-02-21T12:08:46;16.40;;;9.50;;
77449;SDS011;66536;53.150;18.172;2024-02-21T12:11:16;17.90;;;9.30;;
77449;SDS011;66536;53.150;18.172;2024-02-21T12:13:44;18.20;;;9.50;;
77449;SDS011;66536;53.150;18.172;2024-02-21T12:16:10;18.30;;;9.90;;
77449;SDS011;66536;53.150;18.172;2024-02-21T12:18:36;21.70;;;10.80;;
77449;SDS011;66536;53.150;18.172;2024-02-21T12:21:02;17.80;;;10.90;;
77449;SDS011;66536;53.150;18.172;2024-02-21T12:23:31;22.20;;;11.40;;
77449;SDS011;66536;53.150;18.172;2024-02-21T12:25:58;19.80;;;10.00;;
77449;SDS011;66536;53.150;18.172;2024-02-21T12:28:26;18.00;;;9.70;;
77449;SDS011;66536;53.150;18.172;2024-02-21T12:30:55;20.30;;;10.50;;
77449;SDS011;66536;53.150;18.172;2024-02-21T12:33:22;21.00;;;10.00;;
77449;SDS011;66536;53.150;18.172;2024-02-21T12:35:49;16.80;;;10.20;;
77449;SDS011;66536;53.150;18.172;2024-02-21T12:38:16;16.10;;;9.00;;
77449;SDS011;66536;53.150;18.172;2024-02-21T12:40:43;17.90;;;9.60;;
77449;SDS011;66536;53.150;18.172;2024-02-21T12:43:10;18.90;;;8.90;;
77449;SDS011;66536;53.150;18.172;2024-02-21T12:45:37;22.60;;;11.00;;
77449;SDS011;66536;53.150;18.172;2024-02-21T12:48:03;16.30;;;10.30;;
77449;SDS011;66536;53.150;18.172;2024-02-21T12:50:31;19.70;;;10.50;;
77449;SDS011;66536;53.150;18.172;2024-02-21T12:52:59;19.10;;;9.70;;
77449;SDS011;66536;53.150;18.172;2024-02-21T12:55:26;19.00;;;10.20;;
77449;SDS011;66536;53.150;18.172;2024-02-21T12:57:54;18.10;;;11.10;;
77449;SDS011;66536;53.150;18.172;2024-02-21T13:00:20;16.60;;;10.40;;
77449;SDS011;66536;53.150;18.172;2024-02-21T13:02:48;20.60;;;10.00;;
77449;SDS011;66536;53.150;18.172;2024-02-21T13:05:15;16.60;;;9.50;;
77449;SDS011;66536;53.150;18.172;2024-02-21T13:07:42;18.70;;;10.70;;
77449;SDS011;66536;53.150;18.172;2024-02-21T13:10:09;23.60;;;10.30;;
77449;SDS011;66536;53.150;18.172;2024-02-21T13:12:37;19.80;;;10.70;;
77449;SDS011;66536;53.150;18.172;2024-02-21T13:15:04;18.50;;;9.60;;
77449;SDS011;66536;53.150;18.172;2024-02-21T13:17:31;18.00;;;11.20;;
77449;SDS011;66536;53.150;18.172;2024-02-21T13:19:57;21.50;;;12.30;;
77449;SDS011;66536;53.150;18.172;2024-02-21T13:22:24;25.90;;;12.60;;
77449;SDS011;66536;53.150;18.172;2024-02-21T13:24:52;25.40;;;12.30;;
77449;SDS011;66536;53.150;18.172;2024-02-21T13:27:19;24.00;;;12.60;;
77449;SDS011;66536;53.150;18.172;2024-02-21T13:29:45;31.80;;;15.90;;
77449;SDS011;66536;53.150;18.172;2024-02-21T13:32:12;23.20;;;12.10;;
77449;SDS011;66536;53.150;18.172;2024-02-21T13:34:39;21.70;;;12.70;;
77449;SDS011;66536;53.150;18.172;2024-02-21T13:37:08;18.60;;;10.40;;
77449;SDS011;66536;53.150;18.172;2024-02-21T13:39:36;21.40;;;12.60;;
77449;SDS011;66536;53.150;18.172;2024-02-21T13:42:03;30.90;;;13.80;;
77449;SDS011;66536;53.150;18.172;2024-02-21T13:44:31;29.10;;;14.60;;
77449;SDS011;66536;53.150;18.172;2024-02-21T13:46:58;25.40;;;11.50;;
77449;SDS011;66536;53.150;18.172;2024-02-21T13:49:25;23.90;;;12.40;;
77449;SDS011;66536;53.150;18.172;2024-02-21T13:51:51;26.00;;;12.20;;
77449;SDS011;66536;53.150;18.172;2024-02-21T13:54:18;29.80;;;13.90;;
77449;SDS011;66536;53.150;18.172;2024-02-21T13:56:45;30.40;;;15.90;;
77449;SDS011;66536;53.150;18.172;2024-02-21T13:59:12;27.30;;;13.10;;
77449;SDS011;66536;53.150;18.172;2024-02-21T14:01:40;23.50;;;13.50;;
77449;SDS011;66536;53.150;18.172;2024-02-21T14:04:07;30.40;;;13.20;;
77449;SDS011;66536;53.150;18.172;2024-02-21T14:06:35;29.00;;;13.60;;
77449;SDS011;66536;53.150;18.172;2024-02-21T14:09:09;25.60;;;14.10;;
77449;SDS011;66536;53.150;18.172;2024-02-21T14:11:36;27.20;;;13.40;;
77449;SDS011;66536;53.150;18.172;2024-02-21T14:14:04;23.80;;;11.80;;
77449;SDS011;66536;53.150;18.172;2024-02-21T14:16:31;27.80;;;13.40;;
77449;SDS011;66536;53.150;18.172;2024-02-21T14:18:58;25.20;;;12.80;;
77449;SDS011;66536;53.150;18.172;2024-02-21T14:21:24;32.30;;;13.80;;
77449;SDS011;66536;53.150;18.172;2024-02-21T14:23:51;30.20;;;14.00;;